Time,TemperatureF,DewpointF,PressureIn,WindDirection,WindDirectionDegrees,WindSpeedMPH,WindSpeedGustMPH,Humidity,HourlyPrecipIn,Conditions,Clouds,dailyrainin,SoftwareType,DateUTC
2013-06-11 00:00:00,65.5,65.5,29.67,WSW,240,7.0,14.0,100,0.00,,,0.43,meteohub,2013-06-11 04:00:00,
2013-06-11 00:01:00,65.5,65.5,29.67,WSW,240,6.0,14.0,100,0.00,,,0.43,meteohub,2013-06-11 04:01:00,
2013-06-11 00:02:00,65.5,65.5,29.67,WSW,239,6.0,14.0,100,0.00,,,0.43,meteohub,2013-06-11 04:02:00,
2013-06-11 00:07:00,65.5,65.5,29.67,SW,223,9.0,14.0,100,0.00,,,0.00,meteohub,2013-06-11 04:07:00,
2013-06-11 00:12:00,65.5,65.5,29.67,SW,225,5.0,12.0,100,0.00,,,0.00,meteohub,2013-06-11 04:12:00,
2013-06-11 00:17:00,65.5,65.5,29.67,WSW,237,7.0,10.0,100,0.00,,,0.00,meteohub,2013-06-11 04:17:00,
2013-06-11 00:22:00,65.7,65.7,29.67,WSW,243,6.0,12.0,100,0.00,,,0.00,meteohub,2013-06-11 04:22:00,
2013-06-11 00:27:00,65.7,65.7,29.67,SW,234,9.0,12.0,100,0.00,,,0.00,meteohub,2013-06-11 04:27:00,
2013-06-11 00:32:00,65.8,65.8,29.67,SW,234,7.0,13.0,100,0.00,,,0.00,meteohub,2013-06-11 04:32:00,
2013-06-11 00:37:00,66.0,66.0,29.67,SW,234,11.0,13.0,100,0.00,,,0.00,meteohub,2013-06-11 04:37:00,
2013-06-11 00:43:00,66.0,66.0,29.66,WSW,243,8.0,13.0,100,0.00,,,0.00,meteohub,2013-06-11 04:43:00,
2013-06-11 00:48:00,66.2,66.2,29.66,WSW,242,7.0,13.0,100,0.00,,,0.00,meteohub,2013-06-11 04:48:00,
2013-06-11 00:53:00,66.4,66.4,29.66,SW,233,9.0,15.0,100,0.00,,,0.00,meteohub,2013-06-11 04:53:00,
2013-06-11 00:58:00,66.6,66.6,29.66,SW,236,12.0,16.0,100,0.00,,,0.00,meteohub,2013-06-11 04:58:00,
2013-06-11 01:03:00,66.6,66.6,29.66,WSW,238,15.0,16.0,100,0.00,,,0.00,meteohub,2013-06-11 05:03:00,
2013-06-11 01:08:00,66.9,66.9,29.66,WSW,248,14.0,19.0,100,0.00,,,0.00,meteohub,2013-06-11 05:08:00,
2013-06-11 01:13:00,67.1,67.1,29.66,WSW,237,11.0,19.0,100,0.00,,,0.00,meteohub,2013-06-11 05:13:00,
2013-06-11 01:18:00,67.1,67.1,29.66,SW,226,11.0,19.0,100,0.00,,,0.00,meteohub,2013-06-11 05:18:00,
2013-06-11 01:23:00,67.3,67.3,29.66,WSW,238,10.0,17.0,100,0.00,,,0.00,meteohub,2013-06-11 05:23:00,
2013-06-11 01:28:00,67.3,66.9,29.66,SW,219,11.0,16.0,99,0.00,,,0.00,meteohub,2013-06-11 05:28:00,
2013-06-11 01:33:00,67.1,66.7,29.65,SW,236,12.0,16.0,99,0.00,,,0.00,meteohub,2013-06-11 05:33:00,
2013-06-11 01:38:00,67.1,66.7,29.65,WSW,238,12.0,16.0,99,0.00,,,0.00,meteohub,2013-06-11 05:38:00,
2013-06-11 01:43:00,67.1,66.6,29.66,WSW,246,11.0,16.0,98,0.00,,,0.00,meteohub,2013-06-11 05:43:00,
2013-06-11 01:48:00,66.9,66.6,29.66,WSW,240,10.0,20.0,99,0.00,,,0.00,meteohub,2013-06-11 05:48:00,
2013-06-11 01:53:00,66.9,66.6,29.66,SW,232,7.0,20.0,99,0.01,,,0.01,meteohub,2013-06-11 05:53:00,
2013-06-11 01:59:00,66.6,66.2,29.66,SW,236,9.0,15.0,99,0.01,,,0.01,meteohub,2013-06-11 05:59:00,
2013-06-11 02:04:00,66.6,66.2,29.66,SW,236,13.0,15.0,99,0.01,,,0.01,meteohub,2013-06-11 06:04:00,
2013-06-11 02:09:00,66.6,66.2,29.66,WSW,242,9.0,14.0,99,0.01,,,0.01,meteohub,2013-06-11 06:09:00,
2013-06-11 02:14:00,66.4,66.0,29.65,WSW,242,14.0,14.0,99,0.02,,,0.02,meteohub,2013-06-11 06:14:00,
2013-06-11 02:19:00,66.4,66.0,29.65,WSW,238,13.0,14.0,99,0.02,,,0.02,meteohub,2013-06-11 06:19:00,
2013-06-11 02:24:00,66.4,66.0,29.66,WSW,253,15.0,19.0,99,0.02,,,0.02,meteohub,2013-06-11 06:24:00,
2013-06-11 02:29:00,66.4,66.0,29.66,WSW,244,11.0,19.0,99,0.02,,,0.02,meteohub,2013-06-11 06:29:00,
2013-06-11 02:34:00,66.2,65.8,29.66,SW,230,11.0,18.0,99,0.02,,,0.02,meteohub,2013-06-11 06:34:00,
2013-06-11 02:39:00,66.0,65.7,29.66,WSW,250,16.0,18.0,99,0.02,,,0.02,meteohub,2013-06-11 06:39:00,
2013-06-11 02:44:00,66.0,65.7,29.66,WSW,246,15.0,18.0,99,0.02,,,0.02,meteohub,2013-06-11 06:44:00,
2013-06-11 02:49:00,65.8,65.8,29.65,WSW,241,12.0,18.0,100,0.02,,,0.02,meteohub,2013-06-11 06:49:00,
2013-06-11 02:54:00,65.7,65.7,29.66,SW,233,11.0,18.0,100,0.01,,,0.02,meteohub,2013-06-11 06:54:00,
2013-06-11 02:59:00,65.7,65.7,29.66,WSW,240,10.0,16.0,100,0.02,,,0.03,meteohub,2013-06-11 06:59:00,
2013-06-11 03:04:00,65.7,65.7,29.65,WSW,247,11.0,15.0,100,0.02,,,0.03,meteohub,2013-06-11 07:04:00,
2013-06-11 03:09:00,65.7,65.7,29.65,WSW,246,12.0,16.0,100,0.02,,,0.03,meteohub,2013-06-11 07:09:00,
2013-06-11 03:14:00,65.5,65.5,29.65,West,266,14.0,16.0,100,0.01,,,0.03,meteohub,2013-06-11 07:14:00,
2013-06-11 03:19:00,65.1,65.1,29.65,WSW,257,16.0,16.0,100,0.01,,,0.03,meteohub,2013-06-11 07:19:00,
2013-06-11 03:24:00,64.8,64.8,29.65,WSW,258,15.0,20.0,100,0.03,,,0.05,meteohub,2013-06-11 07:24:00,
2013-06-11 03:29:00,64.2,64.2,29.65,WSW,244,16.0,20.0,100,0.03,,,0.05,meteohub,2013-06-11 07:29:00,
2013-06-11 03:35:00,64.2,64.2,29.65,WSW,258,17.0,21.0,100,0.03,,,0.05,meteohub,2013-06-11 07:35:00,
2013-06-11 03:40:00,64.2,64.2,29.65,West,259,19.0,21.0,100,0.04,,,0.07,meteohub,2013-06-11 07:40:00,
2013-06-11 03:45:00,64.0,64.0,29.65,West,261,17.0,21.0,100,0.05,,,0.07,meteohub,2013-06-11 07:45:00,
2013-06-11 03:50:00,64.0,64.0,29.65,WSW,244,16.0,22.0,100,0.10,,,0.12,meteohub,2013-06-11 07:50:00,
2013-06-11 03:55:00,64.2,64.2,29.65,WSW,248,17.0,22.0,100,0.09,,,0.12,meteohub,2013-06-11 07:55:00,
2013-06-11 04:00:00,64.0,64.0,29.65,West,261,21.0,21.0,100,0.09,,,0.12,meteohub,2013-06-11 08:00:00,
2013-06-11 04:05:00,63.9,63.9,29.65,West,261,17.0,26.0,100,0.11,,,0.14,meteohub,2013-06-11 08:05:00,
2013-06-11 04:10:00,63.7,63.7,29.65,West,272,21.0,27.0,100,0.11,,,0.14,meteohub,2013-06-11 08:10:00,
2013-06-11 04:15:00,63.3,63.3,29.65,WSW,242,19.0,29.0,100,0.15,,,0.19,meteohub,2013-06-11 08:15:00,
2013-06-11 04:20:00,63.3,63.3,29.65,WSW,254,20.0,31.0,100,0.17,,,0.22,meteohub,2013-06-11 08:20:00,
2013-06-11 04:25:00,63.0,63.0,29.65,WSW,246,21.0,31.0,100,0.18,,,0.23,meteohub,2013-06-11 08:25:00,
2013-06-11 04:30:00,63.0,63.0,29.66,WSW,257,17.0,31.0,100,0.19,,,0.25,meteohub,2013-06-11 08:30:00,
2013-06-11 04:35:00,62.6,62.6,29.66,WSW,255,22.0,31.0,100,0.20,,,0.26,meteohub,2013-06-11 08:35:00,
2013-06-11 04:40:00,62.4,62.4,29.66,West,262,18.0,31.0,100,0.21,,,0.29,meteohub,2013-06-11 08:40:00,
2013-06-11 04:45:00,62.4,62.4,29.65,WSW,255,21.0,30.0,100,0.21,,,0.32,meteohub,2013-06-11 08:45:00,
2013-06-11 04:50:00,62.4,62.4,29.65,WSW,249,23.0,30.0,100,0.21,,,0.33,meteohub,2013-06-11 08:50:00,
2013-06-11 04:56:00,62.2,62.2,29.66,WSW,257,23.0,30.0,100,0.21,,,0.33,meteohub,2013-06-11 08:56:00,
2013-06-11 05:01:00,62.1,62.1,29.66,WSW,257,22.0,29.0,100,0.20,,,0.33,meteohub,2013-06-11 09:01:00,
2013-06-11 05:06:00,61.7,61.7,29.66,WSW,246,22.0,29.0,100,0.20,,,0.34,meteohub,2013-06-11 09:06:00,
2013-06-11 05:11:00,61.3,61.3,29.66,WSW,257,23.0,27.0,100,0.18,,,0.34,meteohub,2013-06-11 09:11:00,
2013-06-11 05:16:00,61.2,61.2,29.67,WSW,248,19.0,26.0,100,0.15,,,0.35,meteohub,2013-06-11 09:16:00,
2013-06-11 05:21:00,61.2,61.2,29.67,WSW,255,21.0,26.0,100,0.13,,,0.35,meteohub,2013-06-11 09:21:00,
2013-06-11 05:27:00,61.0,61.0,29.67,West,259,19.0,24.0,100,0.11,,,0.35,meteohub,2013-06-11 09:27:00,
2013-06-11 05:32:00,61.0,61.0,29.67,WSW,251,20.0,23.0,100,0.10,,,0.35,meteohub,2013-06-11 09:32:00,
2013-06-11 05:37:00,60.6,60.6,29.67,WSW,258,13.0,23.0,100,0.08,,,0.35,meteohub,2013-06-11 09:37:00,
2013-06-11 05:42:00,60.4,60.4,29.68,West,263,15.0,23.0,100,0.05,,,0.35,meteohub,2013-06-11 09:42:00,
2013-06-11 05:47:00,60.4,60.4,29.68,West,275,17.0,23.0,100,0.03,,,0.35,meteohub,2013-06-11 09:47:00,
2013-06-11 05:52:00,60.4,60.4,29.68,West,275,18.0,22.0,100,0.02,,,0.35,meteohub,2013-06-11 09:52:00,
2013-06-11 05:57:00,60.4,60.4,29.68,West,279,17.0,22.0,100,0.02,,,0.35,meteohub,2013-06-11 09:57:00,
2013-06-11 06:02:00,60.4,60.4,29.69,West,280,12.0,22.0,100,0.02,,,0.35,meteohub,2013-06-11 10:02:00,
2013-06-11 06:07:00,60.3,60.3,29.69,WSW,258,18.0,21.0,100,0.01,,,0.35,meteohub,2013-06-11 10:07:00,
2013-06-11 06:12:00,60.3,60.3,29.70,WSW,258,17.0,20.0,100,0.01,,,0.35,meteohub,2013-06-11 10:12:00,
2013-06-11 06:17:00,60.3,60.3,29.70,WSW,252,14.0,20.0,100,0.00,,,0.35,meteohub,2013-06-11 10:17:00,
2013-06-11 06:22:00,60.4,60.4,29.70,WSW,240,18.0,20.0,100,0.00,,,0.35,meteohub,2013-06-11 10:22:00,
2013-06-11 06:27:00,60.3,60.3,29.70,WSW,254,12.0,20.0,100,0.00,,,0.35,meteohub,2013-06-11 10:27:00,
2013-06-11 06:32:00,60.3,60.3,29.70,WSW,245,14.0,20.0,100,0.00,,,0.35,meteohub,2013-06-11 10:32:00,
2013-06-11 06:37:00,60.3,60.3,29.70,WSW,251,12.0,20.0,100,0.00,,,0.35,meteohub,2013-06-11 10:37:00,
2013-06-11 06:42:00,60.3,60.3,29.70,West,264,14.0,20.0,100,0.00,,,0.35,meteohub,2013-06-11 10:42:00,
2013-06-11 06:47:00,60.3,60.3,29.70,WSW,248,15.0,20.0,100,0.00,,,0.35,meteohub,2013-06-11 10:47:00,
2013-06-11 06:52:00,60.3,60.3,29.71,WSW,254,13.0,19.0,100,0.00,,,0.35,meteohub,2013-06-11 10:52:00,
2013-06-11 06:57:00,60.3,60.3,29.71,WSW,249,14.0,18.0,100,0.00,,,0.35,meteohub,2013-06-11 10:57:00,
2013-06-11 07:02:00,60.3,60.3,29.71,West,261,19.0,19.0,100,0.00,,,0.35,meteohub,2013-06-11 11:02:00,
2013-06-11 07:07:00,60.3,60.3,29.72,West,265,15.0,19.0,100,0.00,,,0.35,meteohub,2013-06-11 11:07:00,
2013-06-11 07:12:00,60.1,60.1,29.72,WSW,257,15.0,19.0,100,0.00,,,0.35,meteohub,2013-06-11 11:12:00,
2013-06-11 07:17:00,60.1,60.1,29.72,West,260,14.0,19.0,100,0.00,,,0.35,meteohub,2013-06-11 11:17:00,
2013-06-11 07:22:00,59.7,59.7,29.73,WSW,253,15.0,19.0,100,0.00,,,0.35,meteohub,2013-06-11 11:22:00,
2013-06-11 07:27:00,60.1,60.1,29.73,WSW,254,14.0,17.0,100,0.00,,,0.35,meteohub,2013-06-11 11:27:00,
2013-06-11 07:32:00,60.3,60.3,29.73,WSW,255,15.0,16.0,100,0.00,,,0.35,meteohub,2013-06-11 11:32:00,
2013-06-11 07:37:00,60.3,60.3,29.73,West,267,15.0,16.0,100,0.00,,,0.35,meteohub,2013-06-11 11:37:00,
2013-06-11 07:43:00,60.3,60.3,29.73,West,262,14.0,17.0,100,0.00,,,0.35,meteohub,2013-06-11 11:43:00,
2013-06-11 07:48:00,60.3,60.3,29.73,WSW,258,16.0,19.0,100,0.00,,,0.35,meteohub,2013-06-11 11:48:00,
2013-06-11 07:53:00,60.4,60.4,29.73,WSW,256,16.0,20.0,100,0.00,,,0.35,meteohub,2013-06-11 11:53:00,
2013-06-11 07:58:00,60.6,60.6,29.73,WSW,258,15.0,20.0,100,0.00,,,0.35,meteohub,2013-06-11 11:58:00,
2013-06-11 08:03:00,61.0,61.0,29.73,West,267,14.0,19.0,100,0.00,,,0.35,meteohub,2013-06-11 12:03:00,
2013-06-11 08:08:00,61.0,61.0,29.73,WSW,255,15.0,19.0,100,0.00,,,0.35,meteohub,2013-06-11 12:08:00,
2013-06-11 08:13:00,60.8,60.8,29.74,WSW,256,16.0,19.0,100,0.00,,,0.35,meteohub,2013-06-11 12:13:00,
2013-06-11 08:18:00,61.0,61.0,29.74,West,263,20.0,20.0,100,0.00,,,0.35,meteohub,2013-06-11 12:18:00,
2013-06-11 08:23:00,60.8,60.8,29.75,WSW,242,15.0,21.0,100,0.00,,,0.35,meteohub,2013-06-11 12:23:00,
2013-06-11 08:28:00,60.8,60.8,29.75,WSW,250,13.0,21.0,100,0.00,,,0.35,meteohub,2013-06-11 12:28:00,
2013-06-11 08:33:00,60.6,60.6,29.75,West,264,17.0,21.0,100,0.00,,,0.35,meteohub,2013-06-11 12:33:00,
2013-06-11 08:38:00,61.0,61.0,29.75,West,268,16.0,21.0,100,0.00,,,0.35,meteohub,2013-06-11 12:38:00,
2013-06-11 08:43:00,61.2,61.2,29.75,West,269,15.0,21.0,100,0.00,,,0.35,meteohub,2013-06-11 12:43:00,
2013-06-11 08:48:00,61.3,61.3,29.75,WSW,252,16.0,20.0,100,0.00,,,0.35,meteohub,2013-06-11 12:48:00,
2013-06-11 08:53:00,61.2,61.2,29.75,WSW,256,17.0,21.0,100,0.00,,,0.35,meteohub,2013-06-11 12:53:00,
2013-06-11 08:58:00,61.2,61.2,29.75,WSW,256,14.0,21.0,100,0.00,,,0.35,meteohub,2013-06-11 12:58:00,
2013-06-11 09:03:00,61.0,61.0,29.75,WSW,254,16.0,21.0,100,0.00,,,0.35,meteohub,2013-06-11 13:03:00,
2013-06-11 09:09:00,61.0,61.0,29.75,West,259,18.0,21.0,100,0.00,,,0.35,meteohub,2013-06-11 13:09:00,
2013-06-11 09:14:00,61.2,61.2,29.75,West,259,16.0,20.0,100,0.00,,,0.35,meteohub,2013-06-11 13:14:00,
2013-06-11 09:19:00,61.0,61.0,29.75,WSW,254,14.0,22.0,100,0.00,,,0.35,meteohub,2013-06-11 13:19:00,
2013-06-11 09:24:00,60.8,60.8,29.75,West,263,19.0,22.0,100,0.00,,,0.35,meteohub,2013-06-11 13:24:00,
2013-06-11 09:29:00,60.6,60.6,29.75,WSW,245,15.0,22.0,100,0.00,,,0.35,meteohub,2013-06-11 13:29:00,
2013-06-11 09:34:00,60.6,60.6,29.76,WSW,257,18.0,22.0,100,0.00,,,0.35,meteohub,2013-06-11 13:34:00,
2013-06-11 09:39:00,60.6,60.6,29.76,WSW,254,13.0,22.0,100,0.00,,,0.35,meteohub,2013-06-11 13:39:00,
2013-06-11 09:44:00,60.6,60.6,29.76,West,261,16.0,22.0,100,0.00,,,0.35,meteohub,2013-06-11 13:44:00,
2013-06-11 09:49:00,60.8,60.8,29.76,WSW,252,17.0,21.0,100,0.00,,,0.35,meteohub,2013-06-11 13:49:00,
2013-06-11 09:54:00,60.6,60.6,29.76,West,265,19.0,21.0,100,0.00,,,0.35,meteohub,2013-06-11 13:54:00,
2013-06-11 09:59:00,60.4,60.4,29.76,West,259,19.0,22.0,100,0.00,,,0.35,meteohub,2013-06-11 13:59:00,
2013-06-11 10:04:00,60.4,60.4,29.77,West,263,18.0,22.0,100,0.00,,,0.35,meteohub,2013-06-11 14:04:00,
2013-06-11 10:09:00,60.3,60.3,29.76,WSW,253,16.0,22.0,100,0.00,,,0.35,meteohub,2013-06-11 14:09:00,
2013-06-11 10:14:00,60.4,60.4,29.76,WSW,252,17.0,21.0,100,0.00,,,0.35,meteohub,2013-06-11 14:14:00,
2013-06-11 10:19:00,60.4,60.4,29.77,WSW,252,20.0,22.0,100,0.00,,,0.35,meteohub,2013-06-11 14:19:00,
2013-06-11 10:24:00,60.4,60.4,29.77,WSW,254,21.0,23.0,100,0.00,,,0.35,meteohub,2013-06-11 14:24:00,
2013-06-11 10:29:00,60.4,60.4,29.76,WSW,248,17.0,24.0,100,0.00,,,0.35,meteohub,2013-06-11 14:29:00,
2013-06-11 10:35:00,60.4,60.4,29.76,WSW,251,21.0,24.0,100,0.00,,,0.35,meteohub,2013-06-11 14:35:00,
2013-06-11 10:40:00,60.4,60.4,29.76,WSW,256,20.0,24.0,100,0.00,,,0.35,meteohub,2013-06-11 14:40:00,
2013-06-11 10:45:00,60.6,60.6,29.76,WSW,256,21.0,23.0,100,0.00,,,0.35,meteohub,2013-06-11 14:45:00,
2013-06-11 10:50:00,60.8,60.8,29.76,WSW,252,20.0,23.0,100,0.00,,,0.35,meteohub,2013-06-11 14:50:00,
2013-06-11 10:55:00,60.8,60.8,29.77,WSW,257,13.0,24.0,100,0.00,,,0.35,meteohub,2013-06-11 14:55:00,
2013-06-11 11:00:00,60.8,60.8,29.77,WSW,253,23.0,24.0,100,0.00,,,0.35,meteohub,2013-06-11 15:00:00,
2013-06-11 11:05:00,60.8,60.8,29.77,WSW,257,19.0,24.0,100,0.00,,,0.35,meteohub,2013-06-11 15:05:00,
2013-06-11 11:10:00,60.6,60.6,29.77,WSW,253,20.0,24.0,100,0.00,,,0.35,meteohub,2013-06-11 15:10:00,
2013-06-11 11:15:00,60.6,60.6,29.77,WSW,252,17.0,24.0,100,0.00,,,0.35,meteohub,2013-06-11 15:15:00,
2013-06-11 11:20:00,60.8,60.8,29.77,West,263,19.0,24.0,100,0.00,,,0.35,meteohub,2013-06-11 15:20:00,
2013-06-11 11:25:00,60.8,60.8,29.77,West,259,15.0,22.0,100,0.00,,,0.35,meteohub,2013-06-11 15:25:00,
2013-06-11 11:30:00,60.8,60.8,29.78,WSW,254,19.0,21.0,100,0.00,,,0.35,meteohub,2013-06-11 15:30:00,
2013-06-11 11:36:00,60.8,60.8,29.78,West,264,15.0,21.0,100,0.00,,,0.35,meteohub,2013-06-11 15:36:00,
2013-06-11 11:41:00,60.6,60.6,29.77,West,259,14.0,22.0,100,0.00,,,0.35,meteohub,2013-06-11 15:41:00,
2013-06-11 11:46:00,60.6,60.6,29.78,WSW,255,15.0,22.0,100,0.00,,,0.35,meteohub,2013-06-11 15:46:00,
2013-06-11 11:51:00,61.0,61.0,29.78,West,260,15.0,20.0,100,0.00,,,0.35,meteohub,2013-06-11 15:51:00,
2013-06-11 11:56:00,60.8,60.8,29.78,West,267,14.0,20.0,100,0.00,,,0.35,meteohub,2013-06-11 15:56:00,
2013-06-11 12:01:00,61.0,61.0,29.78,WSW,254,16.0,20.0,100,0.00,,,0.35,meteohub,2013-06-11 16:01:00,
2013-06-11 12:06:00,60.8,60.8,29.78,WSW,257,16.0,20.0,100,0.00,,,0.35,meteohub,2013-06-11 16:06:00,
2013-06-11 12:12:00,60.8,60.8,29.78,WSW,252,15.0,20.0,100,0.00,,,0.35,meteohub,2013-06-11 16:12:00,
2013-06-11 12:17:00,60.6,60.6,29.78,WSW,254,16.0,20.0,100,0.00,,,0.35,meteohub,2013-06-11 16:17:00,
2013-06-11 12:22:00,60.8,60.8,29.78,WSW,257,17.0,21.0,100,0.00,,,0.35,meteohub,2013-06-11 16:22:00,
2013-06-11 12:27:00,60.6,60.6,29.78,West,271,19.0,23.0,100,0.00,,,0.35,meteohub,2013-06-11 16:27:00,
2013-06-11 12:32:00,60.6,60.6,29.78,WSW,248,19.0,23.0,100,0.00,,,0.35,meteohub,2013-06-11 16:32:00,
2013-06-11 12:37:00,60.6,60.6,29.78,WSW,247,15.0,23.0,100,0.00,,,0.35,meteohub,2013-06-11 16:37:00,
2013-06-11 12:42:00,60.6,60.6,29.78,WSW,238,17.0,23.0,100,0.00,,,0.35,meteohub,2013-06-11 16:42:00,
2013-06-11 12:47:00,60.6,60.6,29.78,West,267,16.0,22.0,100,0.00,,,0.35,meteohub,2013-06-11 16:47:00,
2013-06-11 12:52:00,60.8,60.8,29.78,WSW,250,17.0,22.0,100,0.00,,,0.35,meteohub,2013-06-11 16:52:00,
2013-06-11 12:57:00,61.0,61.0,29.78,WSW,255,16.0,20.0,100,0.00,,,0.35,meteohub,2013-06-11 16:57:00,
2013-06-11 13:02:00,61.0,61.0,29.78,West,267,16.0,21.0,100,0.00,,,0.35,meteohub,2013-06-11 17:02:00,
2013-06-11 13:07:00,61.0,61.0,29.78,WSW,252,20.0,23.0,100,0.00,,,0.35,meteohub,2013-06-11 17:07:00,
2013-06-11 13:12:00,61.0,61.0,29.78,West,261,18.0,23.0,100,0.00,,,0.35,meteohub,2013-06-11 17:12:00,
2013-06-11 13:17:00,61.0,61.0,29.78,WSW,247,17.0,23.0,100,0.00,,,0.35,meteohub,2013-06-11 17:17:00,
2013-06-11 13:22:00,61.0,61.0,29.79,West,262,15.0,22.0,100,0.00,,,0.35,meteohub,2013-06-11 17:22:00,
2013-06-11 13:27:00,61.2,61.2,29.79,SW,228,20.0,23.0,100,0.00,,,0.35,meteohub,2013-06-11 17:27:00,
2013-06-11 13:32:00,61.0,61.0,29.79,West,268,21.0,24.0,100,0.00,,,0.35,meteohub,2013-06-11 17:32:00,
2013-06-11 13:37:00,61.0,61.0,29.79,West,261,19.0,24.0,100,0.00,,,0.35,meteohub,2013-06-11 17:37:00,
2013-06-11 13:42:00,61.0,61.0,29.79,WSW,258,19.0,25.0,100,0.00,,,0.35,meteohub,2013-06-11 17:42:00,
2013-06-11 13:47:00,61.0,61.0,29.79,WSW,247,19.0,25.0,100,0.00,,,0.35,meteohub,2013-06-11 17:47:00,
2013-06-11 13:52:00,61.0,61.0,29.79,WSW,249,19.0,24.0,100,0.00,,,0.35,meteohub,2013-06-11 17:52:00,
2013-06-11 13:57:00,61.2,61.2,29.79,West,261,17.0,24.0,100,0.00,,,0.35,meteohub,2013-06-11 17:57:00,
2013-06-11 14:02:00,61.2,61.2,29.79,West,261,18.0,24.0,100,0.00,,,0.35,meteohub,2013-06-11 18:02:00,
2013-06-11 14:07:00,61.2,61.2,29.79,West,259,17.0,23.0,100,0.00,,,0.35,meteohub,2013-06-11 18:07:00,
2013-06-11 14:13:00,61.0,61.0,29.80,WSW,253,17.0,24.0,100,0.00,,,0.35,meteohub,2013-06-11 18:13:00,
2013-06-11 14:18:00,61.0,61.0,29.80,West,263,21.0,24.0,100,0.00,,,0.35,meteohub,2013-06-11 18:18:00,
2013-06-11 14:23:00,61.0,61.0,29.80,West,265,18.0,24.0,100,0.00,,,0.35,meteohub,2013-06-11 18:23:00,
2013-06-11 14:28:00,61.0,61.0,29.80,West,265,16.0,23.0,100,0.00,,,0.35,meteohub,2013-06-11 18:28:00,
2013-06-11 14:33:00,61.0,61.0,29.80,WSW,258,17.0,23.0,100,0.00,,,0.35,meteohub,2013-06-11 18:33:00,
2013-06-11 14:38:00,61.0,61.0,29.80,West,266,17.0,23.0,100,0.00,,,0.35,meteohub,2013-06-11 18:38:00,
2013-06-11 14:43:00,61.0,61.0,29.81,West,267,16.0,21.0,100,0.00,,,0.35,meteohub,2013-06-11 18:43:00,
2013-06-11 14:48:00,61.2,61.2,29.81,West,264,17.0,20.0,100,0.00,,,0.35,meteohub,2013-06-11 18:48:00,
2013-06-11 14:53:00,61.3,61.3,29.81,West,265,17.0,21.0,100,0.00,,,0.35,meteohub,2013-06-11 18:53:00,
2013-06-11 14:58:00,61.2,61.2,29.81,WSW,257,17.0,22.0,100,0.00,,,0.35,meteohub,2013-06-11 18:58:00,
2013-06-11 15:04:00,61.2,61.2,29.81,West,267,15.0,22.0,100,0.00,,,0.35,meteohub,2013-06-11 19:04:00,
2013-06-11 15:09:00,61.2,61.2,29.81,West,263,15.0,22.0,100,0.00,,,0.35,meteohub,2013-06-11 19:09:00,
2013-06-11 15:14:00,61.2,61.2,29.81,West,271,17.0,19.0,100,0.00,,,0.35,meteohub,2013-06-11 19:14:00,
2013-06-11 15:19:00,61.2,61.2,29.81,West,267,15.0,19.0,100,0.00,,,0.35,meteohub,2013-06-11 19:19:00,
2013-06-11 15:24:00,61.2,61.2,29.81,WSW,258,14.0,19.0,100,0.00,,,0.35,meteohub,2013-06-11 19:24:00,
2013-06-11 15:29:00,61.2,61.2,29.81,West,259,17.0,19.0,100,0.00,,,0.35,meteohub,2013-06-11 19:29:00,
2013-06-11 15:34:00,61.2,61.2,29.81,WSW,247,14.0,19.0,100,0.00,,,0.35,meteohub,2013-06-11 19:34:00,
2013-06-11 15:39:00,61.3,61.3,29.81,WSW,250,14.0,19.0,100,0.00,,,0.35,meteohub,2013-06-11 19:39:00,
2013-06-11 15:44:00,61.3,61.3,29.81,West,260,15.0,19.0,100,0.00,,,0.35,meteohub,2013-06-11 19:44:00,
2013-06-11 15:49:00,61.5,61.5,29.81,West,261,11.0,19.0,100,0.00,,,0.35,meteohub,2013-06-11 19:49:00,
2013-06-11 15:54:00,61.7,61.7,29.80,WSW,250,15.0,18.0,100,0.00,,,0.35,meteohub,2013-06-11 19:54:00,
2013-06-11 15:59:00,61.9,61.9,29.80,West,271,13.0,17.0,100,0.00,,,0.35,meteohub,2013-06-11 19:59:00,
2013-06-11 16:04:00,61.9,61.9,29.81,West,267,14.0,18.0,100,0.00,,,0.35,meteohub,2013-06-11 20:04:00,
2013-06-11 16:09:00,62.1,62.1,29.80,West,260,16.0,18.0,100,0.00,,,0.35,meteohub,2013-06-11 20:09:00,
2013-06-11 16:14:00,62.2,62.2,29.80,West,262,17.0,18.0,100,0.00,,,0.35,meteohub,2013-06-11 20:14:00,
2013-06-11 16:19:00,62.4,62.4,29.80,WSW,254,10.0,18.0,100,0.00,,,0.35,meteohub,2013-06-11 20:19:00,
2013-06-11 16:25:00,62.6,62.6,29.80,West,261,17.0,18.0,100,0.00,,,0.35,meteohub,2013-06-11 20:25:00,
2013-06-11 16:30:00,62.8,62.8,29.80,WSW,257,14.0,18.0,100,0.00,,,0.35,meteohub,2013-06-11 20:30:00,
2013-06-11 16:35:00,63.0,63.0,29.80,WSW,255,17.0,17.0,100,0.00,,,0.35,meteohub,2013-06-11 20:35:00,
2013-06-11 16:40:00,63.0,63.0,29.80,WSW,254,16.0,18.0,100,0.00,,,0.35,meteohub,2013-06-11 20:40:00,
2013-06-11 16:45:00,62.8,62.8,29.80,West,267,15.0,18.0,100,0.00,,,0.35,meteohub,2013-06-11 20:45:00,
2013-06-11 16:50:00,62.6,62.6,29.80,WSW,250,17.0,21.0,100,0.00,,,0.35,meteohub,2013-06-11 20:50:00,
2013-06-11 16:55:00,62.4,62.4,29.80,West,271,16.0,21.0,100,0.00,,,0.35,meteohub,2013-06-11 20:55:00,
2013-06-11 17:00:00,62.4,62.4,29.80,West,259,15.0,21.0,100,0.00,,,0.35,meteohub,2013-06-11 21:00:00,
2013-06-11 17:05:00,62.4,62.4,29.80,WSW,257,13.0,19.0,100,0.00,,,0.35,meteohub,2013-06-11 21:05:00,
2013-06-11 17:10:00,62.2,62.2,29.80,WSW,254,12.0,19.0,100,0.00,,,0.35,meteohub,2013-06-11 21:10:00,
2013-06-11 17:15:00,62.4,62.4,29.80,West,262,12.0,18.0,100,0.00,,,0.35,meteohub,2013-06-11 21:15:00,
2013-06-11 17:20:00,62.4,62.4,29.80,West,259,13.0,17.0,100,0.00,,,0.35,meteohub,2013-06-11 21:20:00,
2013-06-11 17:25:00,62.2,62.2,29.80,WSW,255,14.0,18.0,100,0.00,,,0.35,meteohub,2013-06-11 21:25:00,
2013-06-11 17:30:00,62.4,62.4,29.80,WSW,250,14.0,18.0,100,0.00,,,0.35,meteohub,2013-06-11 21:30:00,
2013-06-11 17:36:00,62.8,62.8,29.80,WSW,252,12.0,18.0,100,0.00,,,0.35,meteohub,2013-06-11 21:36:00,
2013-06-11 17:41:00,63.0,63.0,29.80,WSW,258,17.0,18.0,100,0.00,,,0.35,meteohub,2013-06-11 21:41:00,
2013-06-11 17:46:00,63.3,63.3,29.80,WSW,254,14.0,19.0,100,0.00,,,0.35,meteohub,2013-06-11 21:46:00,
2013-06-11 17:51:00,63.3,63.3,29.80,West,259,16.0,20.0,100,0.00,,,0.35,meteohub,2013-06-11 21:51:00,
2013-06-11 17:56:00,63.1,63.1,29.80,WSW,250,16.0,20.0,100,0.00,,,0.35,meteohub,2013-06-11 21:56:00,
2013-06-11 18:01:00,63.1,63.1,29.80,West,260,15.0,19.0,100,0.00,,,0.35,meteohub,2013-06-11 22:01:00,
2013-06-11 18:06:00,63.3,63.3,29.80,West,261,13.0,19.0,100,0.00,,,0.35,meteohub,2013-06-11 22:06:00,
2013-06-11 18:11:00,63.1,63.1,29.80,West,268,13.0,19.0,100,0.00,,,0.35,meteohub,2013-06-11 22:11:00,
2013-06-11 18:16:00,63.1,63.1,29.80,West,260,18.0,18.0,100,0.00,,,0.35,meteohub,2013-06-11 22:16:00,
2013-06-11 18:21:00,63.0,63.0,29.80,West,267,15.0,18.0,100,0.00,,,0.35,meteohub,2013-06-11 22:21:00,
2013-06-11 18:26:00,63.1,63.1,29.80,West,265,14.0,20.0,100,0.00,,,0.35,meteohub,2013-06-11 22:26:00,
2013-06-11 18:31:00,63.1,63.1,29.81,West,259,13.0,20.0,100,0.00,,,0.35,meteohub,2013-06-11 22:31:00,
2013-06-11 18:37:00,63.0,63.0,29.81,WSW,258,16.0,20.0,100,0.00,,,0.35,meteohub,2013-06-11 22:37:00,
2013-06-11 18:42:00,63.1,63.1,29.80,WSW,258,14.0,18.0,100,0.00,,,0.35,meteohub,2013-06-11 22:42:00,
2013-06-11 18:47:00,63.1,63.1,29.80,West,259,12.0,16.0,100,0.00,,,0.35,meteohub,2013-06-11 22:47:00,
2013-06-11 18:52:00,63.1,63.1,29.80,West,259,13.0,16.0,100,0.00,,,0.35,meteohub,2013-06-11 22:52:00,
2013-06-11 18:57:00,63.1,63.1,29.81,West,259,12.0,15.0,100,0.00,,,0.35,meteohub,2013-06-11 22:57:00,
2013-06-11 19:02:00,63.1,63.1,29.81,West,265,13.0,15.0,100,0.00,,,0.35,meteohub,2013-06-11 23:02:00,
2013-06-11 19:07:00,63.3,63.3,29.80,WSW,257,12.0,15.0,100,0.00,,,0.35,meteohub,2013-06-11 23:07:00,
2013-06-11 19:12:00,63.3,63.3,29.80,West,260,11.0,14.0,100,0.00,,,0.35,meteohub,2013-06-11 23:12:00,
2013-06-11 19:17:00,63.5,63.5,29.80,West,259,10.0,13.0,100,0.00,,,0.35,meteohub,2013-06-11 23:17:00,
2013-06-11 19:22:00,63.5,63.5,29.80,WSW,257,11.0,13.0,100,0.00,,,0.35,meteohub,2013-06-11 23:22:00,
2013-06-11 19:27:00,63.9,63.9,29.80,WSW,258,7.0,13.0,100,0.00,,,0.35,meteohub,2013-06-11 23:27:00,
2013-06-11 19:32:00,64.2,64.2,29.80,West,259,5.0,13.0,100,0.00,,,0.35,meteohub,2013-06-11 23:32:00,
2013-06-11 19:37:00,64.6,64.2,29.80,West,259,4.0,13.0,99,0.00,,,0.35,meteohub,2013-06-11 23:37:00,
2013-06-11 19:42:00,64.8,64.4,29.80,West,259,6.0,11.0,99,0.00,,,0.35,meteohub,2013-06-11 23:42:00,
2013-06-11 19:47:00,64.9,64.4,29.80,West,260,5.0,8.0,98,0.00,,,0.35,meteohub,2013-06-11 23:47:00,
2013-06-11 19:52:00,64.9,64.4,29.80,West,259,5.0,7.0,98,0.00,,,0.35,meteohub,2013-06-11 23:52:00,
2013-06-11 19:57:00,65.1,64.6,29.80,West,260,4.0,7.0,98,0.00,,,0.35,meteohub,2013-06-11 23:57:00,
2013-06-11 20:02:00,65.5,64.9,29.80,West,259,0.0,7.0,98,0.00,,,0.35,meteohub,2013-06-12 00:02:00,
2013-06-11 20:07:00,65.7,64.8,29.80,West,259,4.0,7.0,97,0.00,,,0.35,meteohub,2013-06-12 00:07:00,
2013-06-11 20:12:00,65.8,64.9,29.80,West,259,4.0,7.0,97,0.00,,,0.35,meteohub,2013-06-12 00:12:00,
2013-06-11 20:17:00,66.0,64.8,29.80,West,259,3.0,6.0,96,0.00,,,0.35,meteohub,2013-06-12 00:17:00,
2013-06-11 20:22:00,66.0,64.8,29.80,SSW,201,7.0,7.0,96,0.00,,,0.35,meteohub,2013-06-12 00:22:00,
2013-06-11 20:28:00,66.2,64.9,29.80,SSW,202,4.0,10.0,96,0.00,,,0.35,meteohub,2013-06-12 00:28:00,
2013-06-11 20:33:00,66.2,64.9,29.80,SSW,207,5.0,10.0,96,0.00,,,0.35,meteohub,2013-06-12 00:33:00,
2013-06-11 20:38:00,66.4,65.1,29.80,SSW,205,8.0,10.0,96,0.00,,,0.35,meteohub,2013-06-12 00:38:00,
2013-06-11 20:43:00,66.4,65.1,29.80,SSW,205,8.0,10.0,96,0.00,,,0.35,meteohub,2013-06-12 00:43:00,
2013-06-11 20:48:00,66.4,64.9,29.79,SSW,200,5.0,10.0,95,0.00,,,0.35,meteohub,2013-06-12 00:48:00,
2013-06-11 20:53:00,66.4,64.9,29.79,SSW,204,6.0,11.0,95,0.00,,,0.35,meteohub,2013-06-12 00:53:00,
2013-06-11 20:58:00,66.4,64.9,29.80,SSW,196,6.0,11.0,95,0.00,,,0.35,meteohub,2013-06-12 00:58:00,
2013-06-11 21:03:00,66.4,64.9,29.80,SSW,213,6.0,10.0,95,0.00,,,0.35,meteohub,2013-06-12 01:03:00,
2013-06-11 21:08:00,66.4,64.9,29.79,SSW,199,7.0,10.0,95,0.00,,,0.35,meteohub,2013-06-12 01:08:00,
2013-06-11 21:13:00,66.4,64.9,29.80,SSW,206,10.0,11.0,95,0.00,,,0.35,meteohub,2013-06-12 01:13:00,
2013-06-11 21:18:00,66.4,64.9,29.80,SSW,205,6.0,11.0,95,0.00,,,0.35,meteohub,2013-06-12 01:18:00,
2013-06-11 21:23:00,66.4,64.9,29.80,SSW,202,7.0,11.0,95,0.00,,,0.35,meteohub,2013-06-12 01:23:00,
2013-06-11 21:28:00,66.6,65.1,29.80,SSW,200,6.0,11.0,95,0.00,,,0.35,meteohub,2013-06-12 01:28:00,
2013-06-11 21:33:00,66.4,64.9,29.80,SSW,200,7.0,11.0,95,0.00,,,0.35,meteohub,2013-06-12 01:33:00,
2013-06-11 21:38:00,66.4,64.9,29.80,SSW,194,6.0,11.0,95,0.00,,,0.35,meteohub,2013-06-12 01:38:00,
2013-06-11 21:43:00,66.6,65.1,29.80,South,190,5.0,11.0,95,0.00,,,0.35,meteohub,2013-06-12 01:43:00,
2013-06-11 21:48:00,66.4,64.9,29.80,SSW,192,6.0,11.0,95,0.00,,,0.35,meteohub,2013-06-12 01:48:00,
2013-06-11 21:53:00,66.4,64.9,29.81,South,189,0.0,11.0,95,0.00,,,0.35,meteohub,2013-06-12 01:53:00,
2013-06-11 21:58:00,66.4,65.1,29.81,South,190,2.0,9.0,96,0.00,,,0.35,meteohub,2013-06-12 01:58:00,
2013-06-11 22:02:00,66.4,65.1,29.81,South,190,4.0,9.0,96,0.00,,,0.35,meteohub,2013-06-12 02:02:00,
2013-06-11 22:07:00,66.4,65.1,29.81,SSW,192,4.0,7.0,96,0.00,,,0.35,meteohub,2013-06-12 02:07:00,
2013-06-11 22:12:00,66.4,65.1,29.81,SSW,202,6.0,7.0,96,0.00,,,0.35,meteohub,2013-06-12 02:12:00,
2013-06-11 22:17:00,66.4,65.1,29.81,SSW,192,4.0,10.0,96,0.00,,,0.35,meteohub,2013-06-12 02:17:00,
2013-06-11 22:22:00,66.0,64.8,29.81,SSW,192,6.0,10.0,96,0.00,,,0.35,meteohub,2013-06-12 02:22:00,
2013-06-11 22:27:00,66.0,64.8,29.81,South,190,5.0,10.0,96,0.00,,,0.35,meteohub,2013-06-12 02:27:00,
2013-06-11 22:32:00,66.0,64.8,29.81,SSW,193,6.0,9.0,96,0.00,,,0.35,meteohub,2013-06-12 02:32:00,
2013-06-11 22:37:00,65.8,64.9,29.81,South,188,5.0,9.0,97,0.00,,,0.35,meteohub,2013-06-12 02:37:00,
2013-06-11 22:42:00,65.8,64.9,29.81,South,188,6.0,10.0,97,0.00,,,0.35,meteohub,2013-06-12 02:42:00,
2013-06-11 22:47:00,65.8,64.9,29.81,South,184,4.0,10.0,97,0.00,,,0.35,meteohub,2013-06-12 02:47:00,
2013-06-11 22:52:00,65.7,64.8,29.81,South,189,6.0,10.0,97,0.00,,,0.35,meteohub,2013-06-12 02:52:00,
2013-06-11 22:57:00,65.7,64.8,29.80,SSW,194,7.0,10.0,97,0.00,,,0.35,meteohub,2013-06-12 02:57:00,
2013-06-11 23:02:00,65.7,64.8,29.80,SSW,194,9.0,10.0,97,0.00,,,0.35,meteohub,2013-06-12 03:02:00,
2013-06-11 23:07:00,65.5,64.6,29.80,South,186,7.0,10.0,97,0.00,,,0.35,meteohub,2013-06-12 03:07:00,
2013-06-11 23:12:00,65.5,64.6,29.80,South,187,6.0,11.0,97,0.00,,,0.35,meteohub,2013-06-12 03:12:00,
2013-06-11 23:17:00,65.5,64.6,29.80,South,180,7.0,11.0,97,0.00,,,0.35,meteohub,2013-06-12 03:17:00,
2013-06-11 23:22:00,65.5,64.6,29.80,South,189,4.0,10.0,97,0.00,,,0.35,meteohub,2013-06-12 03:22:00,
2013-06-11 23:27:00,65.5,64.6,29.80,South,184,6.0,10.0,97,0.00,,,0.35,meteohub,2013-06-12 03:27:00,
2013-06-11 23:32:00,65.5,64.6,29.80,South,182,4.0,10.0,97,0.00,,,0.35,meteohub,2013-06-12 03:32:00,
2013-06-11 23:37:00,65.5,64.6,29.80,South,183,5.0,10.0,97,0.00,,,0.35,meteohub,2013-06-12 03:37:00,
2013-06-11 23:43:00,65.5,64.6,29.79,SSE,168,6.0,8.0,97,0.00,,,0.35,meteohub,2013-06-12 03:43:00,
2013-06-11 23:48:00,65.5,64.6,29.79,South,170,4.0,9.0,97,0.00,,,0.35,meteohub,2013-06-12 03:48:00,
2013-06-11 23:53:00,65.5,64.6,29.79,South,171,5.0,9.0,97,0.00,,,0.35,meteohub,2013-06-12 03:53:00,
2013-06-11 23:58:00,65.5,64.6,29.79,South,171,5.0,9.0,97,0.00,,,0.35,meteohub,2013-06-12 03:58:00,